sensor_id;sensor_type;location;lat;lon;timestamp;pressure;altitude;pressure_sealevel;temperature;humidity
21520;BME280;10921;53.614;9.882;2022-09-12T00:01:15;101626.44;;;12.83;92.53
21520;BME280;10921;53.614;9.882;2022-09-12T00:03:42;101630.66;;;12.86;92.70
21520;BME280;10921;53.614;9.882;2022-09-12T00:06:16;101623.75;;;12.83;93.75
21520;BME280;10921;53.614;9.882;2022-09-12T00:08:48;101591.59;;;12.64;93.12
21520;BME280;10921;53.614;9.882;2022-09-12T00:11:14;101611.06;;;12.76;93.47
21520;BME280;10921;53.614;9.882;2022-09-12T00:13:41;101616.28;;;12.77;93.31
21520;BME280;10921;53.614;9.882;2022-09-12T00:16:24;101605.84;;;12.74;94.22
21520;BME280;10921;53.614;9.882;2022-09-12T00:18:51;101616.56;;;12.74;93.14
21520;BME280;10921;53.614;9.882;2022-09-12T00:21:20;101619.38;;;12.73;93.22
21520;BME280;10921;53.614;9.882;2022-09-12T00:23:47;101621.19;;;12.72;93.67
21520;BME280;10921;53.614;9.882;2022-09-12T00:26:14;101615.00;;;12.72;93.74
21520;BME280;10921;53.614;9.882;2022-09-12T00:28:43;101585.22;;;12.55;93.31
21520;BME280;10921;53.614;9.882;2022-09-12T00:31:12;101605.41;;;12.69;93.68
21520;BME280;10921;53.614;9.882;2022-09-12T00:33:40;101618.78;;;12.69;93.24
21520;BME280;10921;53.614;9.882;2022-09-12T00:36:10;101609.06;;;12.68;93.48
21520;BME280;10921;53.614;9.882;2022-09-12T00:38:37;101611.91;;;12.66;93.12
21520;BME280;10921;53.614;9.882;2022-09-12T00:41:13;101601.59;;;12.62;93.35
21520;BME280;10921;53.614;9.882;2022-09-12T00:43:54;101595.06;;;12.55;93.15
21520;BME280;10921;53.614;9.882;2022-09-12T00:46:50;101601.72;;;12.60;93.14
21520;BME280;10921;53.614;9.882;2022-09-12T00:49:47;101611.72;;;12.58;93.37
21520;BME280;10921;53.614;9.882;2022-09-12T00:52:39;101607.47;;;12.56;93.75
21520;BME280;10921;53.614;9.882;2022-09-12T00:55:16;101585.00;;;12.38;92.75
21520;BME280;10921;53.614;9.882;2022-09-12T01:00:21;101597.97;;;12.42;92.51
21520;BME280;10921;53.614;9.882;2022-09-12T01:02:54;101568.63;;;12.21;92.86
21520;BME280;10921;53.614;9.882;2022-09-12T01:05:23;101590.34;;;12.38;92.93
21520;BME280;10921;53.614;9.882;2022-09-12T01:07:51;101579.88;;;12.25;93.08
21520;BME280;10921;53.614;9.882;2022-09-12T01:10:18;101597.81;;;12.34;93.41
21520;BME280;10921;53.614;9.882;2022-09-12T01:12:45;101583.16;;;12.28;93.37
21520;BME280;10921;53.614;9.882;2022-09-12T01:15:12;101580.00;;;12.23;93.92
21520;BME280;10921;53.614;9.882;2022-09-12T01:17:58;101586.09;;;12.25;94.68
21520;BME280;10921;53.614;9.882;2022-09-12T01:20:45;101538.38;;;12.00;94.23
21520;BME280;10921;53.614;9.882;2022-09-12T01:34:23;101581.81;;;12.13;92.51
21520;BME280;10921;53.614;9.882;2022-09-12T01:37:05;101581.09;;;12.11;92.24
21520;BME280;10921;53.614;9.882;2022-09-12T01:39:49;101576.84;;;12.09;93.28
21520;BME280;10921;53.614;9.882;2022-09-12T01:47:50;101572.44;;;11.98;93.96
21520;BME280;10921;53.614;9.882;2022-09-12T01:50:26;101583.13;;;11.98;93.21
21520;BME280;10921;53.614;9.882;2022-09-12T01:53:06;101541.59;;;11.73;93.45
21520;BME280;10921;53.614;9.882;2022-09-12T01:55:40;101556.47;;;11.87;93.62
21520;BME280;10921;53.614;9.882;2022-09-12T01:58:14;101568.47;;;11.92;93.85
21520;BME280;10921;53.614;9.882;2022-09-12T02:01:06;101531.28;;;11.69;94.28
21520;BME280;10921;53.614;9.882;2022-09-12T02:03:50;101544.72;;;11.78;93.86
21520;BME280;10921;53.614;9.882;2022-09-12T02:06:21;101561.97;;;11.85;93.25
21520;BME280;10921;53.614;9.882;2022-09-12T02:08:55;101542.06;;;11.78;93.52
21520;BME280;10921;53.614;9.882;2022-09-12T02:11:23;101562.22;;;11.82;92.87
21520;BME280;10921;53.614;9.882;2022-09-12T02:13:57;101549.25;;;11.78;93.29
21520;BME280;10921;53.614;9.882;2022-09-12T02:16:45;101554.19;;;11.82;93.91
21520;BME280;10921;53.614;9.882;2022-09-12T02:19:17;101543.81;;;11.68;93.30
21520;BME280;10921;53.614;9.882;2022-09-12T02:21:51;101549.41;;;11.76;93.28
21520;BME280;10921;53.614;9.882;2022-09-12T02:24:19;101521.84;;;11.64;93.40
21520;BME280;10921;53.614;9.882;2022-09-12T02:27:02;101531.03;;;11.72;93.75
21520;BME280;10921;53.614;9.882;2022-09-12T02:29:30;101528.88;;;11.66;92.79
21520;BME280;10921;53.614;9.882;2022-09-12T02:31:58;101538.59;;;11.67;93.47
21520;BME280;10921;53.614;9.882;2022-09-12T02:34:50;101535.53;;;11.71;94.43
21520;BME280;10921;53.614;9.882;2022-09-12T02:40:05;101531.75;;;11.53;93.27
21520;BME280;10921;53.614;9.882;2022-09-12T02:42:35;101510.63;;;11.50;93.60
21520;BME280;10921;53.614;9.882;2022-09-12T02:45:02;101523.75;;;11.53;93.29
21520;BME280;10921;53.614;9.882;2022-09-12T02:47:49;101530.97;;;11.62;94.87
21520;BME280;10921;53.614;9.882;2022-09-12T02:50:18;101548.81;;;11.61;93.12
21520;BME280;10921;53.614;9.882;2022-09-12T02:52:45;101537.69;;;11.56;93.59
21520;BME280;10921;53.614;9.882;2022-09-12T02:55:13;101515.00;;;11.51;93.57
21520;BME280;10921;53.614;9.882;2022-09-12T02:57:39;101534.91;;;11.58;93.59
21520;BME280;10921;53.614;9.882;2022-09-12T03:00:07;101526.41;;;11.53;93.55
21520;BME280;10921;53.614;9.882;2022-09-12T03:05:52;101533.59;;;11.52;94.23
21520;BME280;10921;53.614;9.882;2022-09-12T03:14:40;101546.81;;;11.54;94.49
21520;BME280;10921;53.614;9.882;2022-09-12T03:22:50;101544.53;;;11.49;94.45
21520;BME280;10921;53.614;9.882;2022-09-12T03:25:27;101529.41;;;11.39;94.31
21520;BME280;10921;53.614;9.882;2022-09-12T03:28:00;101543.13;;;11.45;93.34
21520;BME280;10921;53.614;9.882;2022-09-12T03:30:38;101521.34;;;11.29;93.90
21520;BME280;10921;53.614;9.882;2022-09-12T03:33:10;101535.13;;;11.34;93.41
21520;BME280;10921;53.614;9.882;2022-09-12T03:35:36;101545.44;;;11.39;93.27
21520;BME280;10921;53.614;9.882;2022-09-12T03:38:03;101525.84;;;11.28;93.45
21520;BME280;10921;53.614;9.882;2022-09-12T03:40:30;101544.72;;;11.37;93.51
21520;BME280;10921;53.614;9.882;2022-09-12T03:42:57;101552.16;;;11.33;93.01
21520;BME280;10921;53.614;9.882;2022-09-12T03:45:23;101541.28;;;11.25;92.89
21520;BME280;10921;53.614;9.882;2022-09-12T03:47:50;101514.75;;;11.12;92.81
21520;BME280;10921;53.614;9.882;2022-09-12T03:50:16;101542.25;;;11.24;93.41
21520;BME280;10921;53.614;9.882;2022-09-12T03:52:43;101549.28;;;11.25;93.45
21520;BME280;10921;53.614;9.882;2022-09-12T03:55:09;101548.09;;;11.18;93.05
21520;BME280;10921;53.614;9.882;2022-09-12T03:57:36;101533.31;;;11.14;93.11
21520;BME280;10921;53.614;9.882;2022-09-12T04:00:04;101511.53;;;10.98;92.97
21520;BME280;10921;53.614;9.882;2022-09-12T04:02:31;101519.00;;;11.04;93.13
21520;BME280;10921;53.614;9.882;2022-09-12T04:04:57;101539.34;;;11.16;93.12
21520;BME280;10921;53.614;9.882;2022-09-12T04:07:24;101505.59;;;10.94;93.33
21520;BME280;10921;53.614;9.882;2022-09-12T04:09:50;101541.34;;;11.14;93.92
21520;BME280;10921;53.614;9.882;2022-09-12T04:12:18;101535.50;;;11.09;93.67
21520;BME280;10921;53.614;9.882;2022-09-12T04:14:45;101537.47;;;11.07;93.66
21520;BME280;10921;53.614;9.882;2022-09-12T04:17:11;101499.19;;;10.85;94.09
21520;BME280;10921;53.614;9.882;2022-09-12T04:19:38;101519.88;;;11.04;94.08
21520;BME280;10921;53.614;9.882;2022-09-12T04:22:05;101525.56;;;11.11;94.42
21520;BME280;10921;53.614;9.882;2022-09-12T04:24:31;101517.31;;;11.03;94.05
21520;BME280;10921;53.614;9.882;2022-09-12T04:26:57;101527.38;;;11.10;94.00
21520;BME280;10921;53.614;9.882;2022-09-12T04:29:24;101517.31;;;11.03;94.00
21520;BME280;10921;53.614;9.882;2022-09-12T04:31:50;101493.22;;;10.93;93.81
21520;BME280;10921;53.614;9.882;2022-09-12T04:34:17;101502.69;;;10.97;94.01
21520;BME280;10921;53.614;9.882;2022-09-12T04:36:43;101515.06;;;10.98;93.58
21520;BME280;10921;53.614;9.882;2022-09-12T04:39:10;101506.31;;;10.96;93.54
21520;BME280;10921;53.614;9.882;2022-09-12T04:41:38;101513.91;;;11.01;93.75
21520;BME280;10921;53.614;9.882;2022-09-12T04:44:09;101526.91;;;11.05;94.32
21520;BME280;10921;53.614;9.882;2022-09-12T04:46:40;101517.31;;;11.03;94.21
21520;BME280;10921;53.614;9.882;2022-09-12T04:49:08;101532.97;;;11.07;93.96
21520;BME280;10921;53.614;9.882;2022-09-12T04:51:36;101524.97;;;11.07;94.24
21520;BME280;10921;53.614;9.882;2022-09-12T04:54:06;101529.44;;;11.07;94.44
21520;BME280;10921;53.614;9.882;2022-09-12T04:56:37;101505.59;;;10.94;94.45
21520;BME280;10921;53.614;9.882;2022-09-12T04:59:04;101505.72;;;10.92;94.47
21520;BME280;10921;53.614;9.882;2022-09-12T05:01:31;101539.88;;;11.10;94.06
21520;BME280;10921;53.614;9.882;2022-09-12T05:03:58;101540.59;;;11.12;94.76
21520;BME280;10921;53.614;9.882;2022-09-12T05:06:31;101501.69;;;10.98;95.39
21520;BME280;10921;53.614;9.882;2022-09-12T05:08:58;101523.59;;;11.13;95.41
21520;BME280;10921;53.614;9.882;2022-09-12T05:11:27;101529.38;;;11.18;95.09
21520;BME280;10921;53.614;9.882;2022-09-12T05:14:14;101514.75;;;11.12;95.05
21520;BME280;10921;53.614;9.882;2022-09-12T05:16:41;101531.69;;;11.22;94.89
21520;BME280;10921;53.614;9.882;2022-09-12T05:19:14;101510.38;;;11.11;94.95
21520;BME280;10921;53.614;9.882;2022-09-12T05:21:40;101529.47;;;11.27;95.84
21520;BME280;10921;53.614;9.882;2022-09-12T05:24:09;101521.34;;;11.29;95.87
21520;BME280;10921;53.614;9.882;2022-09-12T05:26:36;101496.50;;;11.17;95.83
21520;BME280;10921;53.614;9.882;2022-09-12T05:29:03;101495.75;;;11.15;95.74
21520;BME280;10921;53.614;9.882;2022-09-12T05:31:30;101526.75;;;11.39;96.45
21520;BME280;10921;53.614;9.882;2022-09-12T05:33:57;101511.09;;;11.34;96.16
21520;BME280;10921;53.614;9.882;2022-09-12T05:36:28;101499.31;;;11.37;96.34
21520;BME280;10921;53.614;9.882;2022-09-12T05:38:55;101522.16;;;11.50;96.55
21520;BME280;10921;53.614;9.882;2022-09-12T05:41:29;101508.69;;;11.52;96.27
21520;BME280;10921;53.614;9.882;2022-09-12T05:43:57;101527.19;;;11.64;96.11
21520;BME280;10921;53.614;9.882;2022-09-12T05:46:26;101535.78;;;11.68;96.72
21520;BME280;10921;53.614;9.882;2022-09-12T05:48:54;101527.78;;;11.68;96.49
21520;BME280;10921;53.614;9.882;2022-09-12T05:51:27;101532.22;;;11.79;97.09
21520;BME280;10921;53.614;9.882;2022-09-12T05:53:56;101536.31;;;11.83;96.87
21520;BME280;10921;53.614;9.882;2022-09-12T05:56:25;101529.47;;;11.90;96.71
21520;BME280;10921;53.614;9.882;2022-09-12T05:59:03;101533.28;;;11.97;97.87
21520;BME280;10921;53.614;9.882;2022-09-12T06:01:32;101530.63;;;11.97;97.19
21520;BME280;10921;53.614;9.882;2022-09-12T06:04:01;101522.47;;;11.98;97.70
21520;BME280;10921;53.614;9.882;2022-09-12T06:06:30;101533.25;;;12.18;98.02
21520;BME280;10921;53.614;9.882;2022-09-12T06:08:59;101540.47;;;12.27;98.89
21520;BME280;10921;53.614;9.882;2022-09-12T06:11:28;101521.84;;;12.25;99.22
21520;BME280;10921;53.614;9.882;2022-09-12T06:13:56;101517.94;;;12.29;99.94
21520;BME280;10921;53.614;9.882;2022-09-12T06:16:25;101544.78;;;12.58;100.00
21520;BME280;10921;53.614;9.882;2022-09-12T06:18:55;101550.00;;;12.69;100.00
21520;BME280;10921;53.614;9.882;2022-09-12T06:21:23;101543.72;;;12.80;100.00
21520;BME280;10921;53.614;9.882;2022-09-12T06:23:50;101523.00;;;12.82;100.00
21520;BME280;10921;53.614;9.882;2022-09-12T06:26:17;101527.94;;;12.96;100.00
21520;BME280;10921;53.614;9.882;2022-09-12T06:28:46;101544.88;;;13.26;100.00
21520;BME280;10921;53.614;9.882;2022-09-12T06:31:18;101531.22;;;13.29;100.00
21520;BME280;10921;53.614;9.882;2022-09-12T06:33:48;101540.75;;;13.51;100.00
21520;BME280;10921;53.614;9.882;2022-09-12T06:36:19;101539.03;;;13.69;100.00
21520;BME280;10921;53.614;9.882;2022-09-12T06:38:47;101536.84;;;13.92;100.00
21520;BME280;10921;53.614;9.882;2022-09-12T06:41:18;101543.13;;;14.20;100.00
21520;BME280;10921;53.614;9.882;2022-09-12T06:43:44;101533.53;;;14.45;100.00
21520;BME280;10921;53.614;9.882;2022-09-12T06:46:11;101534.50;;;14.71;100.00
21520;BME280;10921;53.614;9.882;2022-09-12T06:48:38;101519.09;;;14.91;100.00
21520;BME280;10921;53.614;9.882;2022-09-12T06:51:14;101523.38;;;15.19;100.00
21520;BME280;10921;53.614;9.882;2022-09-12T06:53:42;101529.44;;;15.39;100.00
21520;BME280;10921;53.614;9.882;2022-09-12T06:56:18;101528.44;;;15.58;100.00
21520;BME280;10921;53.614;9.882;2022-09-12T06:58:46;101525.19;;;15.72;100.00
21520;BME280;10921;53.614;9.882;2022-09-12T07:01:19;101510.72;;;15.73;100.00
21520;BME280;10921;53.614;9.882;2022-09-12T07:03:51;101516.34;;;15.88;100.00
21520;BME280;10921;53.614;9.882;2022-09-12T07:06:20;101529.09;;;16.11;100.00
21520;BME280;10921;53.614;9.882;2022-09-12T07:08:47;101514.47;;;16.14;100.00
21520;BME280;10921;53.614;9.882;2022-09-12T07:11:18;101534.06;;;16.32;100.00
21520;BME280;10921;53.614;9.882;2022-09-12T07:13:48;101521.09;;;16.36;100.00
21520;BME280;10921;53.614;9.882;2022-09-12T07:16:15;101517.13;;;16.48;100.00
21520;BME280;10921;53.614;9.882;2022-09-12T07:18:50;101495.75;;;16.46;100.00
21520;BME280;10921;53.614;9.882;2022-09-12T07:21:17;101496.75;;;16.53;100.00
21520;BME280;10921;53.614;9.882;2022-09-12T07:23:44;101530.38;;;16.83;100.00
21520;BME280;10921;53.614;9.882;2022-09-12T07:26:12;101516.91;;;16.92;100.00
21520;BME280;10921;53.614;9.882;2022-09-12T07:28:39;101517.44;;;17.03;100.00
21520;BME280;10921;53.614;9.882;2022-09-12T07:31:07;101518.25;;;17.12;100.00
21520;BME280;10921;53.614;9.882;2022-09-12T07:33:34;101518.44;;;17.18;100.00
21520;BME280;10921;53.614;9.882;2022-09-12T07:36:03;101508.00;;;17.23;100.00
21520;BME280;10921;53.614;9.882;2022-09-12T07:38:30;101495.69;;;17.21;100.00
21520;BME280;10921;53.614;9.882;2022-09-12T07:40:57;101517.59;;;17.42;100.00
21520;BME280;10921;53.614;9.882;2022-09-12T07:43:24;101515.41;;;17.46;99.18
21520;BME280;10921;53.614;9.882;2022-09-12T07:45:55;101489.44;;;17.45;97.90
21520;BME280;10921;53.614;9.882;2022-09-12T07:48:22;101495.13;;;17.58;96.30
21520;BME280;10921;53.614;9.882;2022-09-12T07:50:59;101512.00;;;17.76;95.35
21520;BME280;10921;53.614;9.882;2022-09-12T07:53:31;101508.75;;;17.89;94.87
21520;BME280;10921;53.614;9.882;2022-09-12T07:55:58;101504.38;;;17.96;93.28
21520;BME280;10921;53.614;9.882;2022-09-12T07:58:25;101514.66;;;18.01;90.44
21520;BME280;10921;53.614;9.882;2022-09-12T08:00:52;101518.78;;;18.19;90.25
21520;BME280;10921;53.614;9.882;2022-09-12T08:03:18;101515.56;;;18.32;89.31
21520;BME280;10921;53.614;9.882;2022-09-12T08:05:45;101524.94;;;18.44;86.39
21520;BME280;10921;53.614;9.882;2022-09-12T08:08:11;101514.25;;;18.51;86.16
21520;BME280;10921;53.614;9.882;2022-09-12T08:10:38;101511.66;;;18.66;83.51
21520;BME280;10921;53.614;9.882;2022-09-12T08:13:04;101514.16;;;18.75;83.61
21520;BME280;10921;53.614;9.882;2022-09-12T08:15:35;101498.22;;;18.80;82.83
21520;BME280;10921;53.614;9.882;2022-09-12T08:18:01;101525.88;;;19.13;80.63
21520;BME280;10921;53.614;9.882;2022-09-12T08:20:28;101536.22;;;19.32;77.87
21520;BME280;10921;53.614;9.882;2022-09-12T08:22:55;101531.38;;;19.51;78.55
21520;BME280;10921;53.614;9.882;2022-09-12T08:25:21;101513.81;;;19.61;76.71
21520;BME280;10921;53.614;9.882;2022-09-12T08:27:48;101518.72;;;19.81;75.04
21520;BME280;10921;53.614;9.882;2022-09-12T08:30:15;101517.50;;;19.98;74.36
21520;BME280;10921;53.614;9.882;2022-09-12T08:32:41;101517.75;;;20.18;73.35
21520;BME280;10921;53.614;9.882;2022-09-12T08:35:08;101529.75;;;20.38;71.63
21520;BME280;10921;53.614;9.882;2022-09-12T08:37:34;101521.78;;;20.51;69.22
21520;BME280;10921;53.614;9.882;2022-09-12T08:40:01;101491.09;;;20.51;69.22
21520;BME280;10921;53.614;9.882;2022-09-12T08:43:06;101515.81;;;20.98;69.47
21520;BME280;10921;53.614;9.882;2022-09-12T08:45:51;101493.38;;;21.04;67.57
21520;BME280;10921;53.614;9.882;2022-09-12T08:48:19;101511.03;;;21.43;67.61
21520;BME280;10921;53.614;9.882;2022-09-12T08:50:46;101500.56;;;21.40;64.65
21520;BME280;10921;53.614;9.882;2022-09-12T08:53:18;101500.06;;;21.51;63.22
21520;BME280;10921;53.614;9.882;2022-09-12T08:55:52;101471.88;;;21.52;63.69
21520;BME280;10921;53.614;9.882;2022-09-12T08:58:22;101487.03;;;21.74;62.11
21520;BME280;10921;53.614;9.882;2022-09-12T09:17:24;101503.72;;;23.41;53.77
21520;BME280;10921;53.614;9.882;2022-09-12T09:19:58;101505.84;;;23.59;54.43
21520;BME280;10921;53.614;9.882;2022-09-12T09:22:35;101493.91;;;23.66;52.84
21520;BME280;10921;53.614;9.882;2022-09-12T09:25:08;101494.69;;;23.87;52.41
21520;BME280;10921;53.614;9.882;2022-09-12T09:30:35;101495.88;;;24.17;52.99
21520;BME280;10921;53.614;9.882;2022-09-12T09:33:05;101490.59;;;24.35;54.06
21520;BME280;10921;53.614;9.882;2022-09-12T09:35:43;101487.97;;;24.53;54.28
21520;BME280;10921;53.614;9.882;2022-09-12T09:38:27;101473.22;;;24.61;53.20
21520;BME280;10921;53.614;9.882;2022-09-12T09:43:36;101464.09;;;24.80;52.03
21520;BME280;10921;53.614;9.882;2022-09-12T09:46:03;101467.41;;;24.89;52.25
21520;BME280;10921;53.614;9.882;2022-09-12T09:48:31;101485.56;;;25.08;51.24
21520;BME280;10921;53.614;9.882;2022-09-12T09:51:00;101478.16;;;25.15;51.20
21520;BME280;10921;53.614;9.882;2022-09-12T09:53:57;101471.44;;;25.36;51.72
21520;BME280;10921;53.614;9.882;2022-09-12T09:58:53;101455.19;;;25.23;51.06
21520;BME280;10921;53.614;9.882;2022-09-12T10:01:19;101443.06;;;25.19;49.57
21520;BME280;10921;53.614;9.882;2022-09-12T10:03:49;101477.25;;;25.46;48.24
21520;BME280;10921;53.614;9.882;2022-09-12T10:08:47;101478.81;;;25.61;48.85
21520;BME280;10921;53.614;9.882;2022-09-12T10:16:30;101456.28;;;25.83;50.66
21520;BME280;10921;53.614;9.882;2022-09-12T10:19:01;101449.53;;;25.86;47.41
21520;BME280;10921;53.614;9.882;2022-09-12T10:21:46;101460.19;;;26.12;49.13
21520;BME280;10921;53.614;9.882;2022-09-12T10:24:20;101474.75;;;26.24;45.75
21520;BME280;10921;53.614;9.882;2022-09-12T10:26:54;101458.94;;;26.26;46.93
21520;BME280;10921;53.614;9.882;2022-09-12T10:29:28;101452.72;;;26.38;46.58
21520;BME280;10921;53.614;9.882;2022-09-12T10:31:59;101460.25;;;26.42;45.88
21520;BME280;10921;53.614;9.882;2022-09-12T10:34:35;101464.16;;;26.46;45.72
21520;BME280;10921;53.614;9.882;2022-09-12T10:37:30;101478.41;;;26.67;45.87
21520;BME280;10921;53.614;9.882;2022-09-12T10:39:58;101469.00;;;26.62;44.19
21520;BME280;10921;53.614;9.882;2022-09-12T10:42:48;101472.13;;;26.78;47.09
21520;BME280;10921;53.614;9.882;2022-09-12T10:45:32;101456.81;;;26.88;46.18
21520;BME280;10921;53.614;9.882;2022-09-12T10:48:24;101461.63;;;27.05;45.56
21520;BME280;10921;53.614;9.882;2022-09-12T10:50:52;101414.47;;;26.61;42.85
21520;BME280;10921;53.614;9.882;2022-09-12T10:53:24;101460.38;;;26.89;43.12
21520;BME280;10921;53.614;9.882;2022-09-12T10:58:53;101425.72;;;26.71;44.43
21520;BME280;10921;53.614;9.882;2022-09-12T11:01:36;101439.41;;;26.71;44.13
21520;BME280;10921;53.614;9.882;2022-09-12T11:10:02;101434.28;;;26.45;44.13
21520;BME280;10921;53.614;9.882;2022-09-12T11:23:39;101429.22;;;26.60;43.72
21520;BME280;10921;53.614;9.882;2022-09-12T11:28:57;101426.63;;;26.65;44.88
21520;BME280;10921;53.614;9.882;2022-09-12T11:34:10;101407.00;;;26.56;44.14
21520;BME280;10921;53.614;9.882;2022-09-12T11:39:27;101429.84;;;26.74;43.68
21520;BME280;10921;53.614;9.882;2022-09-12T11:42:01;101396.88;;;26.57;43.42
21520;BME280;10921;53.614;9.882;2022-09-12T11:44:41;101400.09;;;26.66;44.86
21520;BME280;10921;53.614;9.882;2022-09-12T11:47:12;101386.28;;;26.60;44.22
21520;BME280;10921;53.614;9.882;2022-09-12T11:49:41;101411.31;;;26.76;43.57
21520;BME280;10921;53.614;9.882;2022-09-12T11:52:15;101409.53;;;26.81;43.42
21520;BME280;10921;53.614;9.882;2022-09-12T11:54:47;101404.91;;;26.82;43.74
21520;BME280;10921;53.614;9.882;2022-09-12T11:57:28;101376.75;;;26.63;43.54
21520;BME280;10921;53.614;9.882;2022-09-12T12:05:28;101390.34;;;26.70;43.61
21520;BME280;10921;53.614;9.882;2022-09-12T12:07:59;101391.06;;;26.77;44.20
21520;BME280;10921;53.614;9.882;2022-09-12T12:10:31;101395.16;;;26.86;44.41
21520;BME280;10921;53.614;9.882;2022-09-12T12:13:03;101400.97;;;26.89;44.03
21520;BME280;10921;53.614;9.882;2022-09-12T12:15:38;101388.94;;;26.90;42.68
21520;BME280;10921;53.614;9.882;2022-09-12T12:18:17;101387.34;;;27.01;43.44
21520;BME280;10921;53.614;9.882;2022-09-12T12:20:44;101391.75;;;27.02;43.38
21520;BME280;10921;53.614;9.882;2022-09-12T12:23:30;101403.53;;;27.14;44.11
21520;BME280;10921;53.614;9.882;2022-09-12T12:26:02;101401.75;;;27.08;43.79
21520;BME280;10921;53.614;9.882;2022-09-12T12:31:10;101380.44;;;26.99;43.34
21520;BME280;10921;53.614;9.882;2022-09-12T12:36:08;101387.56;;;27.11;42.91
21520;BME280;10921;53.614;9.882;2022-09-12T12:38:36;101382.94;;;27.12;44.05
21520;BME280;10921;53.614;9.882;2022-09-12T12:43:50;101373.97;;;27.05;43.82
21520;BME280;10921;53.614;9.882;2022-09-12T12:46:25;101367.69;;;27.16;43.75
21520;BME280;10921;53.614;9.882;2022-09-12T12:49:06;101367.56;;;27.11;43.13
21520;BME280;10921;53.614;9.882;2022-09-12T12:57:15;101384.84;;;27.11;43.01
21520;BME280;10921;53.614;9.882;2022-09-12T13:02:32;101346.78;;;26.68;42.42
21520;BME280;10921;53.614;9.882;2022-09-12T13:05:04;101368.09;;;26.78;43.37
21520;BME280;10921;53.614;9.882;2022-09-12T13:07:35;101360.47;;;26.68;43.00
21520;BME280;10921;53.614;9.882;2022-09-12T13:10:05;101318.41;;;26.39;43.52
21520;BME280;10921;53.614;9.882;2022-09-12T13:12:43;101347.34;;;26.58;43.24
21520;BME280;10921;53.614;9.882;2022-09-12T13:18:09;101323.31;;;26.60;44.67
21520;BME280;10921;53.614;9.882;2022-09-12T13:20:52;101329.41;;;26.74;45.97
21520;BME280;10921;53.614;9.882;2022-09-12T13:23:28;101331.66;;;26.77;43.71
21520;BME280;10921;53.614;9.882;2022-09-12T13:25:59;101312.88;;;26.81;43.11
21520;BME280;10921;53.614;9.882;2022-09-12T13:28:28;101315.50;;;26.87;43.43
21520;BME280;10921;53.614;9.882;2022-09-12T13:31:07;101315.31;;;27.01;42.90
21520;BME280;10921;53.614;9.882;2022-09-12T13:33:46;101306.34;;;27.05;43.43
21520;BME280;10921;53.614;9.882;2022-09-12T13:39:16;101305.75;;;27.26;44.03
21520;BME280;10921;53.614;9.882;2022-09-12T13:44:30;101289.34;;;27.03;42.42
21520;BME280;10921;53.614;9.882;2022-09-12T13:47:02;101270.63;;;26.88;43.66
21520;BME280;10921;53.614;9.882;2022-09-12T13:49:33;101259.41;;;26.78;43.42
21520;BME280;10921;53.614;9.882;2022-09-12T13:52:22;101285.03;;;26.84;43.06
21520;BME280;10921;53.614;9.882;2022-09-12T13:54:52;101285.38;;;26.64;43.82
21520;BME280;10921;53.614;9.882;2022-09-12T13:57:38;101280.03;;;26.81;43.65
21520;BME280;10921;53.614;9.882;2022-09-12T14:00:15;101285.22;;;26.47;44.85
21520;BME280;10921;53.614;9.882;2022-09-12T14:02:46;101271.78;;;26.34;45.81
21520;BME280;10921;53.614;9.882;2022-09-12T14:05:19;101278.53;;;26.32;45.21
21520;BME280;10921;53.614;9.882;2022-09-12T14:10:25;101271.31;;;26.37;44.79
21520;BME280;10921;53.614;9.882;2022-09-12T14:12:54;101258.22;;;26.39;45.34
21520;BME280;10921;53.614;9.882;2022-09-12T14:15:25;101263.22;;;26.54;44.57
21520;BME280;10921;53.614;9.882;2022-09-12T14:17:55;101263.09;;;26.60;44.17
21520;BME280;10921;53.614;9.882;2022-09-12T14:20:31;101245.75;;;26.67;44.06
21520;BME280;10921;53.614;9.882;2022-09-12T14:23:05;101261.06;;;26.91;43.37
21520;BME280;10921;53.614;9.882;2022-09-12T14:25:37;101251.72;;;26.99;44.18
21520;BME280;10921;53.614;9.882;2022-09-12T14:28:10;101239.38;;;27.24;44.04
21520;BME280;10921;53.614;9.882;2022-09-12T14:30:38;101256.59;;;27.48;43.39
21520;BME280;10921;53.614;9.882;2022-09-12T14:35:49;101254.38;;;27.74;42.50
21520;BME280;10921;53.614;9.882;2022-09-12T14:38:18;101253.09;;;27.93;42.49
21520;BME280;10921;53.614;9.882;2022-09-12T14:40:51;101245.06;;;28.03;41.23
21520;BME280;10921;53.614;9.882;2022-09-12T14:43:27;101240.81;;;28.12;41.06
21520;BME280;10921;53.614;9.882;2022-09-12T14:46:03;101215.56;;;28.10;41.01
21520;BME280;10921;53.614;9.882;2022-09-12T14:48:35;101206.56;;;28.15;41.52
21520;BME280;10921;53.614;9.882;2022-09-12T14:51:04;101229.22;;;28.22;41.23
21520;BME280;10921;53.614;9.882;2022-09-12T14:53:35;101225.91;;;28.20;40.09
21520;BME280;10921;53.614;9.882;2022-09-12T14:56:06;101226.69;;;28.04;40.47
21520;BME280;10921;53.614;9.882;2022-09-12T14:58:34;101236.72;;;27.98;40.91
21520;BME280;10921;53.614;9.882;2022-09-12T15:01:20;101225.16;;;27.79;40.27
21520;BME280;10921;53.614;9.882;2022-09-12T15:03:51;101227.50;;;27.59;40.69
21520;BME280;10921;53.614;9.882;2022-09-12T15:06:21;101223.25;;;27.40;42.11
21520;BME280;10921;53.614;9.882;2022-09-12T15:08:48;101211.63;;;27.21;41.83
21520;BME280;10921;53.614;9.882;2022-09-12T15:11:15;101211.06;;;27.07;42.05
21520;BME280;10921;53.614;9.882;2022-09-12T15:13:41;101193.97;;;26.88;42.26
21520;BME280;10921;53.614;9.882;2022-09-12T15:16:10;101209.28;;;26.89;42.94
21520;BME280;10921;53.614;9.882;2022-09-12T15:18:37;101201.25;;;26.71;43.47
21520;BME280;10921;53.614;9.882;2022-09-12T15:21:06;101189.09;;;26.67;43.74
21520;BME280;10921;53.614;9.882;2022-09-12T15:23:51;101198.84;;;26.86;43.62